createdAt,value
2019-01-21T00:02:25.764Z,32.90
2019-01-21T00:05:13.738Z,31.00
2019-01-21T00:10:42.235Z,32.97
2019-01-21T00:13:10.958Z,29.03
2019-01-21T00:15:39.765Z,33.37
2019-01-21T00:18:08.515Z,37.50
2019-01-21T00:20:56.385Z,40.43
2019-01-21T00:23:25.094Z,29.00
2019-01-21T00:26:12.990Z,29.80
2019-01-21T00:29:00.845Z,32.77
2019-01-21T00:31:48.726Z,28.07
2019-01-21T00:34:36.666Z,31.67
2019-01-21T00:37:05.374Z,26.03
2019-01-21T00:39:53.197Z,29.43
2019-01-21T00:42:41.042Z,36.03
2019-01-21T00:51:18.374Z,27.77
2019-01-21T00:54:06.198Z,34.63
2019-01-21T00:56:54.024Z,27.17
2019-01-21T00:59:22.734Z,29.97
2019-01-21T01:01:51.392Z,30.50
2019-01-21T01:04:20.077Z,29.17
2019-01-21T01:07:08.040Z,28.77
2019-01-21T01:09:56.010Z,29.90
2019-01-21T01:15:52.143Z,28.90
2019-01-21T01:18:20.848Z,27.87
2019-01-21T01:20:49.843Z,35.47
2019-01-21T01:23:18.570Z,31.13
2019-01-21T01:26:06.408Z,26.87
2019-01-21T01:28:54.295Z,33.57
2019-01-21T01:31:42.121Z,29.20
2019-01-21T01:34:30.039Z,28.30
2019-01-21T01:36:58.729Z,24.87
2019-01-21T01:39:27.546Z,32.70
2019-01-21T01:42:15.393Z,32.73
2019-01-21T01:45:03.314Z,30.23
2019-01-21T01:47:51.353Z,31.13
2019-01-21T01:50:40.178Z,25.60
2019-01-21T01:53:11.116Z,32.37
2019-01-21T01:55:59.070Z,25.60
2019-01-21T01:58:27.785Z,29.37
2019-01-21T02:01:15.698Z,33.60
2019-01-21T02:03:46.154Z,27.37
2019-01-21T02:06:14.821Z,26.53
2019-01-21T02:09:02.650Z,27.87
2019-01-21T02:14:18.993Z,22.80
2019-01-21T02:16:47.659Z,23.10
2019-01-21T02:19:35.657Z,28.63
2019-01-21T02:25:52.253Z,27.50
2019-01-21T02:29:00.868Z,23.00
2019-01-21T02:32:09.360Z,27.40
2019-01-21T02:35:17.840Z,25.70
2019-01-21T02:38:26.324Z,24.07
2019-01-21T02:41:34.956Z,23.20
2019-01-21T02:44:43.483Z,25.37
2019-01-21T02:47:50.698Z,26.70
2019-01-21T02:50:57.919Z,22.40
2019-01-21T02:54:05.188Z,26.33
2019-01-21T02:57:13.664Z,25.07
2019-01-21T03:00:22.249Z,21.10
2019-01-21T03:03:30.735Z,22.13
2019-01-21T03:06:39.575Z,32.40
2019-01-21T03:09:46.808Z,26.37
2019-01-21T03:12:53.906Z,23.97
2019-01-21T03:16:01.135Z,23.70
2019-01-21T03:19:08.560Z,22.27
2019-01-21T03:22:17.041Z,20.17
2019-01-21T03:25:25.584Z,19.10
2019-01-21T03:28:34.147Z,21.80
2019-01-21T03:34:56.047Z,18.70
2019-01-21T03:38:04.555Z,20.17
2019-01-21T03:41:13.045Z,19.27
2019-01-21T03:44:21.537Z,24.53
2019-01-21T03:47:30.411Z,21.30
2019-01-21T03:50:37.595Z,31.60
2019-01-21T03:53:44.876Z,20.13
2019-01-21T03:56:53.320Z,21.33
2019-01-21T04:00:01.887Z,22.67
2019-01-21T04:03:09.163Z,28.87
2019-01-21T04:06:17.699Z,21.03
2019-01-21T04:09:26.181Z,28.17
2019-01-21T04:12:15.796Z,26.27
2019-01-21T04:15:24.527Z,22.70
2019-01-21T04:18:33.309Z,26.40
2019-01-21T04:21:40.543Z,20.07
2019-01-21T04:25:01.158Z,24.13
2019-01-21T04:27:58.266Z,21.83
2019-01-21T04:31:05.532Z,20.33
2019-01-21T04:34:14.095Z,19.53
2019-01-21T04:37:23.101Z,21.60
2019-01-21T04:40:31.586Z,22.43
2019-01-21T04:43:38.770Z,24.23
2019-01-21T04:46:47.256Z,18.20
2019-01-21T04:49:54.520Z,25.77
2019-01-21T04:53:01.732Z,24.47
2019-01-21T04:56:08.898Z,23.83
2019-01-21T04:59:16.053Z,21.23
2019-01-21T05:02:23.204Z,19.47
2019-01-21T05:05:30.617Z,30.63
2019-01-21T05:08:37.783Z,19.47
2019-01-21T05:11:45.002Z,19.13
2019-01-21T05:14:52.188Z,17.83
2019-01-21T05:17:59.420Z,23.50
2019-01-21T05:21:06.613Z,23.30
2019-01-21T05:24:13.873Z,19.57
2019-01-21T05:27:21.055Z,23.57
2019-01-21T05:30:29.622Z,24.80
2019-01-21T05:33:37.283Z,29.03
2019-01-21T05:36:44.434Z,21.73
2019-01-21T05:39:51.602Z,29.17
2019-01-21T05:42:58.729Z,20.07
2019-01-21T05:46:07.275Z,23.87
2019-01-21T05:49:14.419Z,29.17
2019-01-21T05:52:21.693Z,23.63
2019-01-21T05:55:29.057Z,25.97
2019-01-21T05:58:36.312Z,24.30
2019-01-21T06:01:43.497Z,18.43
2019-01-21T06:04:52.036Z,27.83
2019-01-21T06:08:00.526Z,26.73
2019-01-21T06:11:09.020Z,19.43
2019-01-21T06:14:17.504Z,19.50
2019-01-21T06:17:25.954Z,26.67
2019-01-21T06:20:33.185Z,28.73
2019-01-21T06:23:41.695Z,22.80
2019-01-21T06:26:48.911Z,26.73
2019-01-21T06:29:56.231Z,27.50
2019-01-21T06:33:04.368Z,21.53
2019-01-21T06:36:13.665Z,20.63
2019-01-21T06:39:22.109Z,23.57
2019-01-21T06:42:30.587Z,24.83
2019-01-21T06:45:37.824Z,23.80
2019-01-21T06:48:45.012Z,27.37
2019-01-21T06:51:52.299Z,25.13
2019-01-21T06:54:59.470Z,26.40
2019-01-21T06:58:06.702Z,23.80
2019-01-21T07:01:13.891Z,27.27
2019-01-21T07:04:21.111Z,30.53
2019-01-21T07:07:28.301Z,31.13
2019-01-21T07:10:36.786Z,25.17
2019-01-21T07:13:43.930Z,27.90
2019-01-21T07:16:52.390Z,23.60
2019-01-21T07:19:59.579Z,31.57
2019-01-21T07:23:08.074Z,30.70
2019-01-21T07:26:15.239Z,30.30
2019-01-21T07:29:23.677Z,37.07
2019-01-21T07:32:30.902Z,27.37
2019-01-21T07:35:38.103Z,26.13
2019-01-21T07:38:45.280Z,37.87
2019-01-21T07:41:34.585Z,30.00
2019-01-21T07:44:23.990Z,39.97
2019-01-21T07:47:13.369Z,29.30
2019-01-21T07:50:20.526Z,28.97
2019-01-21T07:53:27.722Z,32.37
2019-01-21T07:56:35.019Z,29.57
2019-01-21T07:59:43.476Z,32.67
2019-01-21T08:02:50.666Z,34.20
2019-01-21T08:05:59.134Z,38.20
2019-01-21T08:09:07.628Z,39.67
2019-01-21T08:12:16.102Z,33.60
2019-01-21T08:15:26.275Z,20.13
2019-01-21T08:18:33.559Z,35.33
2019-01-21T08:21:42.106Z,30.63
2019-01-21T08:24:50.605Z,34.10
2019-01-21T08:27:59.172Z,24.50
2019-01-21T08:31:07.718Z,31.03
2019-01-21T08:34:14.984Z,52.33
2019-01-21T08:37:04.432Z,33.93
2019-01-21T08:40:12.928Z,38.03
2019-01-21T08:43:20.147Z,43.23
2019-01-21T08:46:27.362Z,38.57
2019-01-21T08:49:34.599Z,44.33
2019-01-21T08:52:43.086Z,44.00
2019-01-21T08:55:51.570Z,40.10
2019-01-21T08:58:58.764Z,42.63
2019-01-21T09:02:07.286Z,36.83
2019-01-21T09:05:15.822Z,42.53
2019-01-21T09:08:24.359Z,45.00
2019-01-21T09:11:31.549Z,35.90
2019-01-21T09:14:40.134Z,41.83
2019-01-21T09:17:47.352Z,38.93
2019-01-21T09:20:54.506Z,36.80
2019-01-21T09:24:01.709Z,37.67
2019-01-21T09:27:08.932Z,45.37
2019-01-21T09:30:16.170Z,36.70
2019-01-21T09:33:23.406Z,42.97
2019-01-21T09:36:31.890Z,39.73
2019-01-21T09:39:39.093Z,41.50
2019-01-21T09:42:46.271Z,45.17
2019-01-21T09:45:53.455Z,38.60
2019-01-21T09:48:40.825Z,38.07
2019-01-21T09:51:49.263Z,44.53
2019-01-21T09:54:57.762Z,42.17
2019-01-21T09:58:06.257Z,43.70
2019-01-21T10:04:02.405Z,42.67
2019-01-21T10:07:10.834Z,45.40
2019-01-21T10:10:19.400Z,46.87
2019-01-21T10:13:26.581Z,46.37
2019-01-21T10:16:35.059Z,42.03
2019-01-21T10:19:42.286Z,43.60
2019-01-21T10:22:50.838Z,44.73
2019-01-21T10:25:58.013Z,53.77
2019-01-21T10:29:05.238Z,46.30
2019-01-21T10:32:12.441Z,43.87
2019-01-21T10:35:20.878Z,43.37
2019-01-21T10:38:28.113Z,41.93
2019-01-21T10:41:35.264Z,39.23
2019-01-21T10:44:42.475Z,45.93
2019-01-21T10:47:50.976Z,43.67
2019-01-21T10:50:59.458Z,45.00
2019-01-21T10:54:06.640Z,43.90
2019-01-21T10:57:15.084Z,42.23
2019-01-21T11:00:23.776Z,45.43
2019-01-21T11:03:30.966Z,39.63
2019-01-21T11:06:38.181Z,43.07
2019-01-21T11:09:45.341Z,44.90
2019-01-21T11:12:52.551Z,43.03
2019-01-21T11:16:01.169Z,52.27
2019-01-21T11:19:08.330Z,43.53
2019-01-21T11:22:16.779Z,48.50
2019-01-21T11:25:25.269Z,40.70
2019-01-21T11:28:33.749Z,42.50
2019-01-21T11:31:42.237Z,50.93
2019-01-21T11:34:49.510Z,51.37
2019-01-21T11:37:56.767Z,46.13
2019-01-21T11:41:05.255Z,46.77
2019-01-21T11:44:12.407Z,63.13
2019-01-21T11:47:20.911Z,37.13
2019-01-21T11:50:28.172Z,31.50
2019-01-21T11:53:36.661Z,43.03
2019-01-21T11:56:43.883Z,43.10
2019-01-21T11:59:51.012Z,37.33
2019-01-21T12:02:58.241Z,43.50
2019-01-21T12:06:06.727Z,40.00
2019-01-21T12:09:15.228Z,43.50
2019-01-21T12:12:23.688Z,44.30
2019-01-21T12:15:30.845Z,40.47
2019-01-21T12:18:39.329Z,42.00
2019-01-21T12:21:46.496Z,35.10
2019-01-21T12:24:54.966Z,39.00
2019-01-21T12:28:02.151Z,41.67
2019-01-21T12:31:10.637Z,38.67
2019-01-21T12:34:19.077Z,32.90
2019-01-21T12:37:27.563Z,35.80
2019-01-21T12:40:36.041Z,50.50
2019-01-21T12:43:43.229Z,40.23
2019-01-21T12:46:51.715Z,35.30
2019-01-21T12:50:00.217Z,44.10
2019-01-21T12:53:07.400Z,46.63
2019-01-21T12:56:15.842Z,46.17
2019-01-21T12:59:24.368Z,46.63
2019-01-21T13:02:32.891Z,41.60
2019-01-21T13:05:40.082Z,45.17
2019-01-21T13:08:48.532Z,50.70
2019-01-21T13:11:57.015Z,37.37
2019-01-21T13:15:05.435Z,51.37
2019-01-21T13:18:13.934Z,44.00
2019-01-21T13:21:22.421Z,45.97
2019-01-21T13:24:30.862Z,43.77
2019-01-21T13:27:38.111Z,46.67
2019-01-21T13:33:50.828Z,47.53
2019-01-21T13:39:58.550Z,50.07
2019-01-21T13:43:06.989Z,36.10
2019-01-21T13:46:15.484Z,56.07
2019-01-21T13:49:23.930Z,46.27
2019-01-21T13:52:31.150Z,44.47
2019-01-21T13:55:39.599Z,42.87
2019-01-21T13:58:48.077Z,47.60
2019-01-21T14:01:56.564Z,45.07
2019-01-21T14:05:05.048Z,38.43
2019-01-21T14:08:12.363Z,37.13
2019-01-21T14:11:20.797Z,50.20
2019-01-21T14:14:29.267Z,40.00
2019-01-21T14:17:36.387Z,41.37
2019-01-21T14:20:44.919Z,48.53
2019-01-21T14:23:53.557Z,37.80
2019-01-21T14:27:00.738Z,36.50
2019-01-21T14:30:08.032Z,47.20
2019-01-21T14:33:16.475Z,40.40
2019-01-21T14:36:23.711Z,49.73
2019-01-21T14:39:32.297Z,42.90
2019-01-21T14:42:40.774Z,46.93
2019-01-21T14:45:49.320Z,45.47
2019-01-21T14:49:04.451Z,44.30
2019-01-21T14:52:08.007Z,50.67
2019-01-21T14:55:15.175Z,45.73
2019-01-21T14:58:23.168Z,48.33
2019-01-21T15:01:31.663Z,45.77
2019-01-21T15:04:40.226Z,43.57
2019-01-21T15:07:48.774Z,45.63
2019-01-21T15:10:56.057Z,46.40
2019-01-21T15:14:03.287Z,40.77
2019-01-21T15:17:11.784Z,41.40
2019-01-21T15:20:20.356Z,35.27
2019-01-21T15:23:27.684Z,53.67
2019-01-21T15:26:36.178Z,41.43
2019-01-21T15:29:43.444Z,46.67
2019-01-21T15:32:50.711Z,35.33
2019-01-21T15:35:57.939Z,37.20
2019-01-21T15:39:06.392Z,26.93
2019-01-21T15:42:13.706Z,34.27
2019-01-21T15:45:22.363Z,34.37
2019-01-21T15:48:31.105Z,36.60
2019-01-21T15:51:39.651Z,32.57
2019-01-21T15:54:46.811Z,29.50
2019-01-21T15:57:55.317Z,29.70
2019-01-21T16:01:02.617Z,34.80
2019-01-21T16:03:52.071Z,34.63
2019-01-21T16:06:59.191Z,31.67
2019-01-21T16:10:06.435Z,31.93
2019-01-21T16:13:15.020Z,39.57
2019-01-21T16:16:22.242Z,33.80
2019-01-21T16:19:30.727Z,40.63
2019-01-21T16:22:37.946Z,34.43
2019-01-21T16:25:27.357Z,39.30
2019-01-21T16:28:34.512Z,34.77
2019-01-21T16:31:42.998Z,37.20
2019-01-21T16:34:50.194Z,36.57
2019-01-21T16:37:57.350Z,35.37
2019-01-21T16:41:05.853Z,42.30
2019-01-21T16:43:53.795Z,35.67
2019-01-21T16:46:41.774Z,35.47
2019-01-21T16:49:29.718Z,36.87
2019-01-21T16:52:17.685Z,33.53
2019-01-21T16:55:05.684Z,37.73
2019-01-21T16:57:53.668Z,33.00
2019-01-21T17:00:41.476Z,37.40
2019-01-21T17:03:29.430Z,38.93
2019-01-21T17:06:17.217Z,29.17
2019-01-21T17:11:53.079Z,32.97
2019-01-21T17:14:41.128Z,34.00
2019-01-21T17:17:29.099Z,39.07
2019-01-21T17:20:17.120Z,33.77
2019-01-21T17:23:05.083Z,40.70
2019-01-21T17:25:52.936Z,36.33
2019-01-21T17:28:40.903Z,42.70
2019-01-21T17:36:51.048Z,34.17
2019-01-21T17:39:38.891Z,52.83
2019-01-21T17:45:00.566Z,42.37
2019-01-21T17:47:29.254Z,37.17
2019-01-21T17:49:57.921Z,36.40
2019-01-21T17:52:26.645Z,41.27
2019-01-21T17:55:14.604Z,38.07
2019-01-21T17:58:02.545Z,31.03
2019-01-21T18:00:50.328Z,36.47
2019-01-21T18:03:19.240Z,33.50
2019-01-21T18:08:54.912Z,34.80
2019-01-21T18:11:42.871Z,34.90
2019-01-21T18:14:53.002Z,42.73
2019-01-21T18:23:22.174Z,37.67
2019-01-21T18:26:10.168Z,43.27
2019-01-21T18:28:58.058Z,36.63
2019-01-21T18:31:45.955Z,38.73
2019-01-21T18:34:33.796Z,38.70
2019-01-21T18:37:21.693Z,38.87
2019-01-21T18:40:30.140Z,36.50
2019-01-21T18:43:18.179Z,30.37
2019-01-21T18:46:06.117Z,34.97
2019-01-21T18:48:54.014Z,32.53
2019-01-21T18:51:46.684Z,28.13
2019-01-21T18:54:31.522Z,29.53
2019-01-21T18:57:19.496Z,34.40
2019-01-21T19:00:07.288Z,36.23
2019-01-21T19:05:35.281Z,39.73
2019-01-21T19:11:18.036Z,30.80
2019-01-21T19:14:05.979Z,31.57
2019-01-21T19:16:34.644Z,38.60
2019-01-21T19:19:03.429Z,33.20
2019-01-21T19:21:32.112Z,34.73
2019-01-21T19:24:19.961Z,29.10
2019-01-21T19:27:07.883Z,34.80
2019-01-21T19:29:55.783Z,30.47
2019-01-21T19:32:43.699Z,31.40
2019-01-21T19:35:52.181Z,31.97
2019-01-21T19:38:40.031Z,49.97
2019-01-21T19:41:27.854Z,40.13
2019-01-21T19:46:30.877Z,30.20
2019-01-21T19:51:47.370Z,44.47
2019-01-21T19:54:35.150Z,32.80
2019-01-21T19:57:03.867Z,26.83
2019-01-21T20:02:40.709Z,28.53
2019-01-21T20:08:10.103Z,29.87
2019-01-21T20:10:38.825Z,28.97
2019-01-21T20:13:26.811Z,34.33
2019-01-21T20:16:14.765Z,29.23
2019-01-21T20:19:02.590Z,26.37
2019-01-21T20:21:31.290Z,30.67
2019-01-21T20:24:19.262Z,30.67
2019-01-21T20:29:41.861Z,29.67
2019-01-21T20:32:29.713Z,29.30
2019-01-21T20:35:17.663Z,34.40
2019-01-21T20:38:05.627Z,37.27
2019-01-21T20:40:53.462Z,33.17
2019-01-21T20:43:41.432Z,26.50
2019-01-21T20:49:16.909Z,34.23
2019-01-21T20:52:04.845Z,48.97
2019-01-21T20:54:52.707Z,35.23
2019-01-21T20:57:21.342Z,31.90
2019-01-21T20:59:50.118Z,44.23
2019-01-21T21:02:18.834Z,39.30
2019-01-21T21:05:06.674Z,40.03
2019-01-21T21:07:54.472Z,31.10
2019-01-21T21:13:37.097Z,37.33
2019-01-21T21:16:05.783Z,45.67
2019-01-21T21:18:53.761Z,36.73
2019-01-21T21:21:22.413Z,33.13
2019-01-21T21:24:10.393Z,64.87
2019-01-21T21:26:58.318Z,35.03
2019-01-21T21:29:46.287Z,38.20
2019-01-21T21:32:34.211Z,105.97
2019-01-21T21:35:02.908Z,46.17
2019-01-21T21:37:50.827Z,37.80
2019-01-21T21:40:38.985Z,33.07
2019-01-21T21:43:26.982Z,37.43
2019-01-21T21:46:14.890Z,34.90
2019-01-21T21:49:24.684Z,32.60
2019-01-21T21:51:53.776Z,38.80
2019-01-21T21:57:29.614Z,45.00
2019-01-21T22:00:17.446Z,38.70
2019-01-21T22:03:05.273Z,34.10
2019-01-21T22:05:53.216Z,46.40
2019-01-21T22:08:41.258Z,41.97
2019-01-21T22:11:29.201Z,34.53
2019-01-21T22:13:59.634Z,44.30
2019-01-21T22:16:28.300Z,45.43
2019-01-21T22:19:16.185Z,55.37
2019-01-21T22:22:04.030Z,37.27
2019-01-21T22:24:52.121Z,33.63
2019-01-21T22:27:40.071Z,35.00
2019-01-21T22:30:48.517Z,34.20
2019-01-21T22:33:38.210Z,35.07
2019-01-21T22:36:26.163Z,40.40
2019-01-21T22:39:14.066Z,37.77
2019-01-21T22:44:49.824Z,33.03
2019-01-21T22:47:37.724Z,42.43
2019-01-21T22:50:46.212Z,43.07
2019-01-21T22:53:34.188Z,36.40
2019-01-21T22:56:22.062Z,33.80
2019-01-21T23:04:39.138Z,28.43
2019-01-21T23:07:27.103Z,39.27
2019-01-21T23:10:15.074Z,36.37
2019-01-21T23:12:43.807Z,34.53
2019-01-21T23:15:12.726Z,35.30
2019-01-21T23:18:04.294Z,33.60
2019-01-21T23:20:50.250Z,33.07
2019-01-21T23:23:38.076Z,38.27
2019-01-21T23:26:25.874Z,31.93
2019-01-21T23:29:13.914Z,33.90
2019-01-21T23:32:01.758Z,37.77
2019-01-21T23:34:51.314Z,36.90
2019-01-21T23:37:39.184Z,32.10
2019-01-21T23:40:49.390Z,41.47
2019-01-21T23:43:18.096Z,39.17
2019-01-21T23:46:05.957Z,43.30
2019-01-21T23:48:53.854Z,33.00
2019-01-21T23:51:41.758Z,37.43
2019-01-21T23:54:29.538Z,36.10
2019-01-21T23:57:17.510Z,39.60
